sensor_id;sensor_type;location;lat;lon;timestamp;pressure;altitude;pressure_sealevel;temperature;humidity
20630;BME280;17386;43.846;25.950;2023-05-23T00:02:11;100962.53;;;17.97;100.00
20630;BME280;17386;43.846;25.950;2023-05-23T00:04:37;100979.25;;;18.02;100.00
20630;BME280;17386;43.846;25.950;2023-05-23T00:07:04;100978.38;;;18.01;100.00
20630;BME280;17386;43.846;25.950;2023-05-23T00:09:30;100976.56;;;18.02;100.00
20630;BME280;17386;43.846;25.950;2023-05-23T00:11:55;100982.03;;;18.00;100.00
20630;BME280;17386;43.846;25.950;2023-05-23T00:14:22;100971.47;;;17.97;100.00
20630;BME280;17386;43.846;25.950;2023-05-23T00:16:48;100978.66;;;17.97;100.00
20630;BME280;17386;43.846;25.950;2023-05-23T00:19:15;100969.19;;;17.91;100.00
20630;BME280;17386;43.846;25.950;2023-05-23T00:21:41;100978.19;;;17.90;100.00
20630;BME280;17386;43.846;25.950;2023-05-23T00:24:09;100972.91;;;17.89;100.00
20630;BME280;17386;43.846;25.950;2023-05-23T00:26:36;100978.19;;;17.90;100.00
20630;BME280;17386;43.846;25.950;2023-05-23T00:29:02;100983.84;;;17.86;100.00
20630;BME280;17386;43.846;25.950;2023-05-23T00:31:29;100979.53;;;17.83;100.00
20630;BME280;17386;43.846;25.950;2023-05-23T00:33:56;100985.00;;;17.82;100.00
20630;BME280;17386;43.846;25.950;2023-05-23T00:36:23;100982.41;;;17.80;100.00
20630;BME280;17386;43.846;25.950;2023-05-23T00:38:50;100986.16;;;17.77;100.00
20630;BME280;17386;43.846;25.950;2023-05-23T00:41:16;100990.66;;;17.77;100.00
20630;BME280;17386;43.846;25.950;2023-05-23T00:43:42;100989.72;;;17.78;100.00
20630;BME280;17386;43.846;25.950;2023-05-23T00:46:09;100998.69;;;17.77;100.00
20630;BME280;17386;43.846;25.950;2023-05-23T00:48:37;100989.78;;;17.76;100.00
20630;BME280;17386;43.846;25.950;2023-05-23T00:51:04;100997.66;;;17.80;100.00
20630;BME280;17386;43.846;25.950;2023-05-23T00:53:32;100990.47;;;17.80;100.00
20630;BME280;17386;43.846;25.950;2023-05-23T00:55:58;100989.63;;;17.80;100.00
20630;BME280;17386;43.846;25.950;2023-05-23T00:58:23;100989.50;;;17.81;100.00
20630;BME280;17386;43.846;25.950;2023-05-23T01:00:49;100985.28;;;17.77;100.00
20630;BME280;17386;43.846;25.950;2023-05-23T01:03:14;100980.84;;;17.76;100.00
20630;BME280;17386;43.846;25.950;2023-05-23T01:05:43;100965.53;;;17.78;100.00
20630;BME280;17386;43.846;25.950;2023-05-23T01:08:10;100970.50;;;17.84;100.00
20630;BME280;17386;43.846;25.950;2023-05-23T01:10:36;100968.78;;;17.83;100.00
20630;BME280;17386;43.846;25.950;2023-05-23T01:15:45;100984.53;;;17.89;100.00
20630;BME280;17386;43.846;25.950;2023-05-23T01:18:15;100989.13;;;17.87;100.00
20630;BME280;17386;43.846;25.950;2023-05-23T01:20:54;100988.44;;;17.84;100.00
20630;BME280;17386;43.846;25.950;2023-05-23T01:29:02;100983.81;;;17.57;100.00
20630;BME280;17386;43.846;25.950;2023-05-23T01:31:36;100980.53;;;17.52;100.00
20630;BME280;17386;43.846;25.950;2023-05-23T01:34:05;100980.88;;;17.46;100.00
20630;BME280;17386;43.846;25.950;2023-05-23T01:36:34;100981.06;;;17.43;100.00
20630;BME280;17386;43.846;25.950;2023-05-23T01:39:04;100983.34;;;17.35;100.00
20630;BME280;17386;43.846;25.950;2023-05-23T01:41:30;100976.44;;;17.31;100.00
20630;BME280;17386;43.846;25.950;2023-05-23T01:43:56;100982.84;;;17.28;100.00
20630;BME280;17386;43.846;25.950;2023-05-23T01:46:23;100982.19;;;17.25;100.00
20630;BME280;17386;43.846;25.950;2023-05-23T01:48:49;100990.59;;;17.18;100.00
20630;BME280;17386;43.846;25.950;2023-05-23T01:51:16;100992.88;;;17.10;100.00
20630;BME280;17386;43.846;25.950;2023-05-23T01:53:42;100990.56;;;17.04;100.00
20630;BME280;17386;43.846;25.950;2023-05-23T01:56:09;100991.75;;;16.99;100.00
20630;BME280;17386;43.846;25.950;2023-05-23T01:58:35;100987.72;;;16.91;100.00
20630;BME280;17386;43.846;25.950;2023-05-23T02:01:00;100994.91;;;16.91;100.00
20630;BME280;17386;43.846;25.950;2023-05-23T02:03:27;100993.34;;;16.87;100.00
20630;BME280;17386;43.846;25.950;2023-05-23T02:05:53;101000.81;;;16.82;100.00
20630;BME280;17386;43.846;25.950;2023-05-23T02:08:19;100992.41;;;16.72;100.00
20630;BME280;17386;43.846;25.950;2023-05-23T02:10:44;100994.22;;;16.72;100.00
20630;BME280;17386;43.846;25.950;2023-05-23T02:13:11;101002.28;;;16.72;100.00
20630;BME280;17386;43.846;25.950;2023-05-23T02:15:38;100994.53;;;16.65;100.00
20630;BME280;17386;43.846;25.950;2023-05-23T02:18:04;100999.47;;;16.57;100.00
20630;BME280;17386;43.846;25.950;2023-05-23T02:20:31;101000.88;;;16.49;100.00
20630;BME280;17386;43.846;25.950;2023-05-23T02:22:57;100994.78;;;16.45;100.00
20630;BME280;17386;43.846;25.950;2023-05-23T02:25:23;101007.09;;;16.49;100.00
20630;BME280;17386;43.846;25.950;2023-05-23T02:27:50;100994.53;;;16.50;100.00
20630;BME280;17386;43.846;25.950;2023-05-23T02:30:17;101005.09;;;16.53;100.00
20630;BME280;17386;43.846;25.950;2023-05-23T02:32:44;100993.84;;;16.46;100.00
20630;BME280;17386;43.846;25.950;2023-05-23T02:35:12;100997.38;;;16.47;100.00
20630;BME280;17386;43.846;25.950;2023-05-23T02:37:39;100996.63;;;16.45;100.00
20630;BME280;17386;43.846;25.950;2023-05-23T02:40:06;100996.00;;;16.39;100.00
20630;BME280;17386;43.846;25.950;2023-05-23T02:42:33;100996.97;;;16.38;100.00
20630;BME280;17386;43.846;25.950;2023-05-23T02:44:59;100995.13;;;16.39;100.00
20630;BME280;17386;43.846;25.950;2023-05-23T02:47:26;100989.97;;;16.36;100.00
20630;BME280;17386;43.846;25.950;2023-05-23T02:49:53;100996.28;;;16.35;100.00
20630;BME280;17386;43.846;25.950;2023-05-23T02:52:20;100990.47;;;16.27;100.00
20630;BME280;17386;43.846;25.950;2023-05-23T02:54:47;101001.34;;;16.24;100.00
20630;BME280;17386;43.846;25.950;2023-05-23T02:57:14;100992.88;;;16.16;100.00
20630;BME280;17386;43.846;25.950;2023-05-23T02:59:39;101004.38;;;16.18;100.00
20630;BME280;17386;43.846;25.950;2023-05-23T03:02:06;100999.00;;;16.18;100.00
20630;BME280;17386;43.846;25.950;2023-05-23T03:04:33;101003.41;;;16.19;100.00
20630;BME280;17386;43.846;25.950;2023-05-23T03:06:58;101008.78;;;16.19;100.00
20630;BME280;17386;43.846;25.950;2023-05-23T03:09:24;101013.69;;;16.10;100.00
20630;BME280;17386;43.846;25.950;2023-05-23T03:11:51;101009.38;;;16.08;100.00
20630;BME280;17386;43.846;25.950;2023-05-23T03:14:16;101006.78;;;16.06;100.00
20630;BME280;17386;43.846;25.950;2023-05-23T03:16:42;101018.38;;;16.07;100.00
20630;BME280;17386;43.846;25.950;2023-05-23T03:19:07;101019.38;;;16.04;100.00
20630;BME280;17386;43.846;25.950;2023-05-23T03:21:33;101020.34;;;16.03;100.00
20630;BME280;17386;43.846;25.950;2023-05-23T03:23:59;101009.78;;;16.00;100.00
20630;BME280;17386;43.846;25.950;2023-05-23T03:26:26;101027.59;;;16.01;100.00
20630;BME280;17386;43.846;25.950;2023-05-23T03:28:53;101029.41;;;16.01;100.00
20630;BME280;17386;43.846;25.950;2023-05-23T03:31:18;101032.19;;;15.99;100.00
20630;BME280;17386;43.846;25.950;2023-05-23T03:33:45;101023.53;;;15.94;100.00
20630;BME280;17386;43.846;25.950;2023-05-23T03:36:12;101032.13;;;15.83;100.00
20630;BME280;17386;43.846;25.950;2023-05-23T03:38:37;101033.06;;;15.82;100.00
20630;BME280;17386;43.846;25.950;2023-05-23T03:41:02;101037.38;;;15.85;100.00
20630;BME280;17386;43.846;25.950;2023-05-23T03:43:28;101037.16;;;15.90;100.00
20630;BME280;17386;43.846;25.950;2023-05-23T03:45:53;101038.97;;;15.89;100.00
20630;BME280;17386;43.846;25.950;2023-05-23T03:48:18;101045.72;;;15.96;100.00
20630;BME280;17386;43.846;25.950;2023-05-23T03:50:45;101037.53;;;15.99;100.00
20630;BME280;17386;43.846;25.950;2023-05-23T03:53:11;101048.09;;;16.02;100.00
20630;BME280;17386;43.846;25.950;2023-05-23T03:55:38;101029.84;;;15.93;100.00
20630;BME280;17386;43.846;25.950;2023-05-23T03:58:04;101052.25;;;16.08;100.00
20630;BME280;17386;43.846;25.950;2023-05-23T04:00:32;101050.19;;;16.13;100.00
20630;BME280;17386;43.846;25.950;2023-05-23T04:02:58;101053.66;;;16.15;100.00
20630;BME280;17386;43.846;25.950;2023-05-23T04:05:24;101051.75;;;16.17;100.00
20630;BME280;17386;43.846;25.950;2023-05-23T04:07:49;101047.97;;;16.21;100.00
20630;BME280;17386;43.846;25.950;2023-05-23T04:10:18;101057.50;;;16.27;100.00
20630;BME280;17386;43.846;25.950;2023-05-23T04:12:44;101064.25;;;16.34;100.00
20630;BME280;17386;43.846;25.950;2023-05-23T04:15:13;101063.91;;;16.40;100.00
20630;BME280;17386;43.846;25.950;2023-05-23T04:17:39;101065.47;;;16.44;100.00
20630;BME280;17386;43.846;25.950;2023-05-23T04:20:06;101060.81;;;16.48;100.00
20630;BME280;17386;43.846;25.950;2023-05-23T04:22:33;101062.13;;;16.56;100.00
20630;BME280;17386;43.846;25.950;2023-05-23T04:24:59;101061.88;;;16.61;100.00
20630;BME280;17386;43.846;25.950;2023-05-23T04:27:25;101062.66;;;16.63;100.00
20630;BME280;17386;43.846;25.950;2023-05-23T04:29:52;101074.00;;;16.68;100.00
20630;BME280;17386;43.846;25.950;2023-05-23T04:32:19;101070.19;;;16.72;100.00
20630;BME280;17386;43.846;25.950;2023-05-23T04:34:48;101073.94;;;16.70;100.00
20630;BME280;17386;43.846;25.950;2023-05-23T04:37:15;101067.50;;;16.72;100.00
20630;BME280;17386;43.846;25.950;2023-05-23T04:39:42;101069.25;;;16.73;100.00
20630;BME280;17386;43.846;25.950;2023-05-23T04:42:09;101063.81;;;16.75;100.00
20630;BME280;17386;43.846;25.950;2023-05-23T04:44:35;101079.91;;;16.75;100.00
20630;BME280;17386;43.846;25.950;2023-05-23T04:47:03;101066.66;;;16.72;100.00
20630;BME280;17386;43.846;25.950;2023-05-23T04:49:29;101061.28;;;16.72;100.00
20630;BME280;17386;43.846;25.950;2023-05-23T04:51:58;101072.78;;;16.74;100.00
20630;BME280;17386;43.846;25.950;2023-05-23T04:54:24;101073.03;;;16.69;100.00
20630;BME280;17386;43.846;25.950;2023-05-23T04:56:50;101087.47;;;16.66;100.00
20630;BME280;17386;43.846;25.950;2023-05-23T04:59:16;101080.28;;;16.67;100.00
20630;BME280;17386;43.846;25.950;2023-05-23T05:01:42;101083.72;;;16.71;100.00
20630;BME280;17386;43.846;25.950;2023-05-23T05:04:09;101078.34;;;16.71;100.00
20630;BME280;17386;43.846;25.950;2023-05-23T05:06:34;101077.88;;;16.62;100.00
20630;BME280;17386;43.846;25.950;2023-05-23T05:09:00;101075.00;;;16.50;100.00
20630;BME280;17386;43.846;25.950;2023-05-23T05:11:26;101071.69;;;16.29;100.00
20630;BME280;17386;43.846;25.950;2023-05-23T05:13:51;101072.97;;;16.22;100.00
20630;BME280;17386;43.846;25.950;2023-05-23T05:16:17;101070.38;;;16.20;100.00
20630;BME280;17386;43.846;25.950;2023-05-23T05:18:42;101066.06;;;16.33;100.00
20630;BME280;17386;43.846;25.950;2023-05-23T05:21:07;101071.28;;;16.52;100.00
20630;BME280;17386;43.846;25.950;2023-05-23T05:23:34;101069.66;;;16.65;100.00
20630;BME280;17386;43.846;25.950;2023-05-23T05:26:01;101058.81;;;16.67;100.00
20630;BME280;17386;43.846;25.950;2023-05-23T05:28:28;101066.41;;;16.76;100.00
20630;BME280;17386;43.846;25.950;2023-05-23T05:30:55;101062.09;;;16.89;100.00
20630;BME280;17386;43.846;25.950;2023-05-23T05:33:22;101061.63;;;16.81;100.00
20630;BME280;17386;43.846;25.950;2023-05-23T05:35:50;101055.97;;;16.54;100.00
20630;BME280;17386;43.846;25.950;2023-05-23T05:38:17;101059.59;;;16.53;100.00
20630;BME280;17386;43.846;25.950;2023-05-23T05:40:43;101059.19;;;16.61;100.00
20630;BME280;17386;43.846;25.950;2023-05-23T05:43:11;101066.81;;;16.68;100.00
20630;BME280;17386;43.846;25.950;2023-05-23T05:45:36;101079.13;;;16.73;100.00
20630;BME280;17386;43.846;25.950;2023-05-23T05:48:03;101062.84;;;16.91;100.00
20630;BME280;17386;43.846;25.950;2023-05-23T05:50:30;101080.25;;;17.16;100.00
20630;BME280;17386;43.846;25.950;2023-05-23T05:52:57;101066.59;;;17.35;100.00
20630;BME280;17386;43.846;25.950;2023-05-23T05:55:23;101072.50;;;17.56;100.00
20630;BME280;17386;43.846;25.950;2023-05-23T05:57:49;101077.91;;;17.71;100.00
20630;BME280;17386;43.846;25.950;2023-05-23T06:00:16;101074.44;;;17.84;100.00
20630;BME280;17386;43.846;25.950;2023-05-23T06:02:43;101074.47;;;17.98;100.00
20630;BME280;17386;43.846;25.950;2023-05-23T06:05:13;101084.19;;;18.15;100.00
20630;BME280;17386;43.846;25.950;2023-05-23T06:07:42;101082.38;;;18.29;100.00
20630;BME280;17386;43.846;25.950;2023-05-23T06:10:09;101094.09;;;18.43;100.00
20630;BME280;17386;43.846;25.950;2023-05-23T06:12:39;101093.34;;;18.55;100.00
20630;BME280;17386;43.846;25.950;2023-05-23T06:15:05;101092.38;;;18.42;100.00
20630;BME280;17386;43.846;25.950;2023-05-23T06:17:32;101088.72;;;18.43;100.00
20630;BME280;17386;43.846;25.950;2023-05-23T06:19:59;101104.66;;;18.31;100.00
20630;BME280;17386;43.846;25.950;2023-05-23T06:22:25;101090.94;;;18.36;100.00
20630;BME280;17386;43.846;25.950;2023-05-23T06:24:52;101095.06;;;18.42;100.00
20630;BME280;17386;43.846;25.950;2023-05-23T06:27:19;101097.94;;;18.53;100.00
20630;BME280;17386;43.846;25.950;2023-05-23T06:29:46;101089.59;;;18.72;100.00
20630;BME280;17386;43.846;25.950;2023-05-23T06:32:13;101091.38;;;18.85;100.00
20630;BME280;17386;43.846;25.950;2023-05-23T06:34:40;101085.50;;;18.93;100.00
20630;BME280;17386;43.846;25.950;2023-05-23T06:37:06;101091.06;;;19.04;100.00
20630;BME280;17386;43.846;25.950;2023-05-23T06:39:32;101066.53;;;19.09;100.00
20630;BME280;17386;43.846;25.950;2023-05-23T06:41:57;101085.34;;;19.23;100.00
20630;BME280;17386;43.846;25.950;2023-05-23T06:44:23;101079.59;;;19.15;100.00
20630;BME280;17386;43.846;25.950;2023-05-23T06:46:49;101085.13;;;19.26;100.00
20630;BME280;17386;43.846;25.950;2023-05-23T06:49:16;101092.72;;;19.47;100.00
20630;BME280;17386;43.846;25.950;2023-05-23T06:51:43;101086.81;;;19.54;100.00
20630;BME280;17386;43.846;25.950;2023-05-23T06:54:08;101072.56;;;19.66;99.52
20630;BME280;17386;43.846;25.950;2023-05-23T06:56:34;101084.88;;;19.83;98.38
20630;BME280;17386;43.846;25.950;2023-05-23T06:58:59;101077.22;;;20.03;97.40
20630;BME280;17386;43.846;25.950;2023-05-23T07:01:26;101072.38;;;20.20;96.83
20630;BME280;17386;43.846;25.950;2023-05-23T07:03:51;101078.63;;;20.34;95.19
20630;BME280;17386;43.846;25.950;2023-05-23T07:06:17;101077.69;;;20.47;93.86
20630;BME280;17386;43.846;25.950;2023-05-23T07:08:42;101071.31;;;20.48;93.15
20630;BME280;17386;43.846;25.950;2023-05-23T07:11:09;101075.28;;;20.56;92.83
20630;BME280;17386;43.846;25.950;2023-05-23T07:13:36;101074.97;;;20.60;92.16
20630;BME280;17386;43.846;25.950;2023-05-23T07:16:01;101077.41;;;20.76;91.67
20630;BME280;17386;43.846;25.950;2023-05-23T07:18:27;101074.34;;;20.93;90.02
20630;BME280;17386;43.846;25.950;2023-05-23T07:20:53;101076.34;;;21.02;88.59
20630;BME280;17386;43.846;25.950;2023-05-23T07:23:18;101071.16;;;20.99;87.41
20630;BME280;17386;43.846;25.950;2023-05-23T07:25:45;101070.72;;;21.06;87.82
20630;BME280;17386;43.846;25.950;2023-05-23T07:28:11;101065.69;;;21.01;88.87
20630;BME280;17386;43.846;25.950;2023-05-23T07:30:37;101074.81;;;21.11;89.06
20630;BME280;17386;43.846;25.950;2023-05-23T07:33:03;101068.19;;;21.28;88.84
20630;BME280;17386;43.846;25.950;2023-05-23T07:35:30;101067.81;;;21.33;88.91
20630;BME280;17386;43.846;25.950;2023-05-23T07:37:56;101066.31;;;21.52;88.24
20630;BME280;17386;43.846;25.950;2023-05-23T07:40:24;101073.84;;;21.60;87.48
20630;BME280;17386;43.846;25.950;2023-05-23T07:42:51;101066.28;;;21.76;86.97
20630;BME280;17386;43.846;25.950;2023-05-23T07:45:17;101071.47;;;21.91;86.51
20630;BME280;17386;43.846;25.950;2023-05-23T07:47:44;101075.56;;;22.07;85.95
20630;BME280;17386;43.846;25.950;2023-05-23T07:50:09;101076.69;;;22.16;83.79
20630;BME280;17386;43.846;25.950;2023-05-23T07:52:35;101073.03;;;22.28;82.92
20630;BME280;17386;43.846;25.950;2023-05-23T07:55:00;101077.09;;;22.34;82.40
20630;BME280;17386;43.846;25.950;2023-05-23T07:57:27;101068.34;;;22.42;82.41
20630;BME280;17386;43.846;25.950;2023-05-23T07:59:54;101075.63;;;22.41;80.32
20630;BME280;17386;43.846;25.950;2023-05-23T08:02:20;101068.59;;;22.50;77.83
20630;BME280;17386;43.846;25.950;2023-05-23T08:04:47;101070.69;;;22.69;77.48
20630;BME280;17386;43.846;25.950;2023-05-23T08:07:15;101069.81;;;22.79;77.66
20630;BME280;17386;43.846;25.950;2023-05-23T08:09:41;101063.91;;;22.97;76.96
20630;BME280;17386;43.846;25.950;2023-05-23T08:12:07;101069.16;;;23.09;76.39
20630;BME280;17386;43.846;25.950;2023-05-23T08:14:33;101051.38;;;23.28;75.26
20630;BME280;17386;43.846;25.950;2023-05-23T08:16:59;101054.63;;;23.42;74.51
20630;BME280;17386;43.846;25.950;2023-05-23T08:19:25;101055.03;;;23.59;74.72
20630;BME280;17386;43.846;25.950;2023-05-23T08:21:51;101052.16;;;23.71;73.98
20630;BME280;17386;43.846;25.950;2023-05-23T08:24:20;101055.41;;;23.86;73.43
20630;BME280;17386;43.846;25.950;2023-05-23T08:26:47;101040.78;;;23.98;72.52
20630;BME280;17386;43.846;25.950;2023-05-23T08:29:13;101037.00;;;24.11;71.39
20630;BME280;17386;43.846;25.950;2023-05-23T08:31:40;101035.94;;;24.23;70.86
20630;BME280;17386;43.846;25.950;2023-05-23T08:34:07;101033.59;;;24.39;70.19
20630;BME280;17386;43.846;25.950;2023-05-23T08:36:32;101030.03;;;24.48;69.44
20630;BME280;17386;43.846;25.950;2023-05-23T08:39:02;101024.22;;;24.63;68.79
20630;BME280;17386;43.846;25.950;2023-05-23T08:41:29;101014.53;;;24.70;68.45
20630;BME280;17386;43.846;25.950;2023-05-23T08:43:56;101013.72;;;24.79;68.12
20630;BME280;17386;43.846;25.950;2023-05-23T08:46:24;101014.25;;;24.82;67.74
20630;BME280;17386;43.846;25.950;2023-05-23T08:48:53;101022.72;;;24.79;67.42
20630;BME280;17386;43.846;25.950;2023-05-23T08:51:25;101021.41;;;24.83;66.71
20630;BME280;17386;43.846;25.950;2023-05-23T08:53:53;101014.72;;;24.88;65.75
20630;BME280;17386;43.846;25.950;2023-05-23T08:56:20;101008.72;;;24.94;66.76
20630;BME280;17386;43.846;25.950;2023-05-23T08:58:49;101013.63;;;25.09;66.61
20630;BME280;17386;43.846;25.950;2023-05-23T09:01:16;101014.19;;;25.23;66.08
20630;BME280;17386;43.846;25.950;2023-05-23T09:03:47;101009.91;;;25.30;65.59
20630;BME280;17386;43.846;25.950;2023-05-23T09:06:16;101002.75;;;25.29;64.40
20630;BME280;17386;43.846;25.950;2023-05-23T09:08:46;101010.47;;;25.24;64.08
20630;BME280;17386;43.846;25.950;2023-05-23T09:11:15;101003.19;;;25.34;63.42
20630;BME280;17386;43.846;25.950;2023-05-23T09:13:42;101001.47;;;25.23;64.32
20630;BME280;17386;43.846;25.950;2023-05-23T09:16:15;100999.03;;;25.30;64.41
20630;BME280;17386;43.846;25.950;2023-05-23T09:18:44;100998.75;;;25.23;63.60
20630;BME280;17386;43.846;25.950;2023-05-23T09:21:11;101002.03;;;25.36;64.05
20630;BME280;17386;43.846;25.950;2023-05-23T09:23:40;100999.88;;;25.50;64.01
20630;BME280;17386;43.846;25.950;2023-05-23T09:26:10;100997.59;;;25.55;63.66
20630;BME280;17386;43.846;25.950;2023-05-23T09:28:40;100989.56;;;25.63;63.62
20630;BME280;17386;43.846;25.950;2023-05-23T09:31:07;100991.41;;;25.72;62.99
20630;BME280;17386;43.846;25.950;2023-05-23T09:33:47;100984.84;;;25.75;61.53
20630;BME280;17386;43.846;25.950;2023-05-23T09:36:16;100977.91;;;25.90;61.47
20630;BME280;17386;43.846;25.950;2023-05-23T09:38:44;100980.56;;;26.09;60.22
20630;BME280;17386;43.846;25.950;2023-05-23T09:41:11;100973.69;;;26.05;58.96
20630;BME280;17386;43.846;25.950;2023-05-23T09:43:59;100976.69;;;26.12;59.29
20630;BME280;17386;43.846;25.950;2023-05-23T09:46:30;100976.19;;;26.26;57.10
20630;BME280;17386;43.846;25.950;2023-05-23T09:48:56;100980.25;;;26.22;57.25
20630;BME280;17386;43.846;25.950;2023-05-23T09:51:25;100984.56;;;26.15;57.69
20630;BME280;17386;43.846;25.950;2023-05-23T09:53:51;100972.03;;;25.95;58.43
20630;BME280;17386;43.846;25.950;2023-05-23T09:56:19;100972.47;;;25.80;59.17
20630;BME280;17386;43.846;25.950;2023-05-23T09:58:48;100979.78;;;25.70;59.55
20630;BME280;17386;43.846;25.950;2023-05-23T10:01:14;100969.16;;;25.96;59.28
20630;BME280;17386;43.846;25.950;2023-05-23T10:08:54;100962.69;;;27.95;52.48
20630;BME280;17386;43.846;25.950;2023-05-23T10:11:58;100961.66;;;28.80;50.65
20630;BME280;17386;43.846;25.950;2023-05-23T10:14:34;100958.34;;;29.68;47.74
20630;BME280;17386;43.846;25.950;2023-05-23T10:20:15;100942.38;;;31.43;43.42
20630;BME280;17386;43.846;25.950;2023-05-23T10:22:42;100939.25;;;32.13;40.25
20630;BME280;17386;43.846;25.950;2023-05-23T10:25:08;100937.50;;;32.27;38.80
20630;BME280;17386;43.846;25.950;2023-05-23T10:27:39;100931.91;;;32.50;38.61
20630;BME280;17386;43.846;25.950;2023-05-23T10:30:06;100934.72;;;32.57;38.63
20630;BME280;17386;43.846;25.950;2023-05-23T10:32:33;100939.69;;;32.17;38.63
20630;BME280;17386;43.846;25.950;2023-05-23T10:38:10;100927.88;;;31.12;39.81
20630;BME280;17386;43.846;25.950;2023-05-23T10:43:17;100927.09;;;30.10;40.59
20630;BME280;17386;43.846;25.950;2023-05-23T10:45:45;100927.94;;;30.02;40.94
20630;BME280;17386;43.846;25.950;2023-05-23T10:51:21;100922.88;;;30.92;39.06
20630;BME280;17386;43.846;25.950;2023-05-23T10:53:53;100923.53;;;31.40;38.07
20630;BME280;17386;43.846;25.950;2023-05-23T10:56:22;100918.13;;;31.84;36.97
20630;BME280;17386;43.846;25.950;2023-05-23T10:58:56;100915.34;;;32.14;36.44
20630;BME280;17386;43.846;25.950;2023-05-23T11:01:23;100908.72;;;31.94;35.69
20630;BME280;17386;43.846;25.950;2023-05-23T11:03:51;100911.03;;;31.38;36.70
20630;BME280;17386;43.846;25.950;2023-05-23T11:06:43;100913.25;;;30.65;37.94
20630;BME280;17386;43.846;25.950;2023-05-23T11:09:16;100914.00;;;30.28;38.62
20630;BME280;17386;43.846;25.950;2023-05-23T11:12:03;100906.63;;;30.29;38.03
20630;BME280;17386;43.846;25.950;2023-05-23T11:17:37;100905.59;;;30.30;38.47
20630;BME280;17386;43.846;25.950;2023-05-23T11:20:25;100903.03;;;30.28;38.04
20630;BME280;17386;43.846;25.950;2023-05-23T11:23:01;100897.03;;;30.24;37.95
20630;BME280;17386;43.846;25.950;2023-05-23T11:25:47;100903.00;;;29.89;38.43
20630;BME280;17386;43.846;25.950;2023-05-23T11:28:14;100893.00;;;29.40;39.44
20630;BME280;17386;43.846;25.950;2023-05-23T11:30:43;100899.69;;;29.13;40.10
20630;BME280;17386;43.846;25.950;2023-05-23T11:33:10;100897.75;;;28.81;40.73
20630;BME280;17386;43.846;25.950;2023-05-23T11:35:44;100902.84;;;28.60;40.59
20630;BME280;17386;43.846;25.950;2023-05-23T11:38:15;100900.63;;;28.13;41.18
20630;BME280;17386;43.846;25.950;2023-05-23T11:40:44;100894.91;;;27.90;42.32
20630;BME280;17386;43.846;25.950;2023-05-23T11:43:15;100872.41;;;27.96;42.40
20630;BME280;17386;43.846;25.950;2023-05-23T11:45:41;100889.38;;;28.08;41.89
20630;BME280;17386;43.846;25.950;2023-05-23T11:48:08;100877.72;;;27.98;42.13
20630;BME280;17386;43.846;25.950;2023-05-23T11:50:46;100889.13;;;27.67;41.93
20630;BME280;17386;43.846;25.950;2023-05-23T11:53:14;100881.16;;;27.22;42.16
20630;BME280;17386;43.846;25.950;2023-05-23T11:55:54;100878.34;;;26.96;43.24
20630;BME280;17386;43.846;25.950;2023-05-23T11:58:25;100872.44;;;26.83;44.15
20630;BME280;17386;43.846;25.950;2023-05-23T12:00:51;100874.03;;;26.85;44.28
20630;BME280;17386;43.846;25.950;2023-05-23T12:03:18;100873.47;;;26.99;44.24
20630;BME280;17386;43.846;25.950;2023-05-23T12:05:44;100875.09;;;27.10;44.34
20630;BME280;17386;43.846;25.950;2023-05-23T12:08:12;100849.50;;;26.85;41.80
20630;BME280;17386;43.846;25.950;2023-05-23T12:10:51;100859.38;;;27.04;42.37
20630;BME280;17386;43.846;25.950;2023-05-23T12:13:17;100864.28;;;27.18;41.64
20630;BME280;17386;43.846;25.950;2023-05-23T12:15:43;100862.97;;;27.31;41.26
20630;BME280;17386;43.846;25.950;2023-05-23T12:18:10;100845.84;;;27.38;39.64
20630;BME280;17386;43.846;25.950;2023-05-23T12:20:37;100848.06;;;27.43;39.92
20630;BME280;17386;43.846;25.950;2023-05-23T12:23:06;100840.72;;;27.43;39.61
20630;BME280;17386;43.846;25.950;2023-05-23T12:25:41;100848.25;;;27.49;40.78
20630;BME280;17386;43.846;25.950;2023-05-23T12:28:07;100838.41;;;27.57;41.24
20630;BME280;17386;43.846;25.950;2023-05-23T12:30:43;100842.38;;;27.62;40.16
20630;BME280;17386;43.846;25.950;2023-05-23T12:33:09;100838.38;;;27.48;38.98
20630;BME280;17386;43.846;25.950;2023-05-23T12:35:37;100831.00;;;27.41;39.13
20630;BME280;17386;43.846;25.950;2023-05-23T12:38:05;100833.25;;;27.45;39.16
20630;BME280;17386;43.846;25.950;2023-05-23T12:40:35;100828.69;;;27.28;40.84
20630;BME280;17386;43.846;25.950;2023-05-23T12:43:02;100829.25;;;27.32;40.70
20630;BME280;17386;43.846;25.950;2023-05-23T12:45:34;100820.78;;;27.43;41.00
20630;BME280;17386;43.846;25.950;2023-05-23T12:48:02;100829.16;;;27.49;40.50
20630;BME280;17386;43.846;25.950;2023-05-23T12:50:29;100827.47;;;27.48;40.52
20630;BME280;17386;43.846;25.950;2023-05-23T12:52:57;100830.88;;;27.50;39.27
20630;BME280;17386;43.846;25.950;2023-05-23T12:55:23;100827.84;;;27.53;39.42
20630;BME280;17386;43.846;25.950;2023-05-23T12:57:49;100826.25;;;27.51;39.19
20630;BME280;17386;43.846;25.950;2023-05-23T13:00:17;100828.75;;;27.36;39.23
20630;BME280;17386;43.846;25.950;2023-05-23T13:02:44;100823.94;;;27.30;39.69
20630;BME280;17386;43.846;25.950;2023-05-23T13:05:11;100821.41;;;27.37;39.40
20630;BME280;17386;43.846;25.950;2023-05-23T13:07:40;100822.66;;;27.42;39.09